sensor_id;sensor_type;location;lat;lon;timestamp;P1;durP1;ratioP1;P2;durP2;ratioP2
609;SDS011;292;48.800;9.216;2023-05-16T00:01:11;11.30;;;7.13;;
609;SDS011;292;48.800;9.216;2023-05-16T00:03:38;13.50;;;7.30;;
609;SDS011;292;48.800;9.216;2023-05-16T00:06:08;10.67;;;6.60;;
609;SDS011;292;48.800;9.216;2023-05-16T00:08:35;9.60;;;6.30;;
609;SDS011;292;48.800;9.216;2023-05-16T00:11:02;11.60;;;6.77;;
609;SDS011;292;48.800;9.216;2023-05-16T00:13:30;11.43;;;6.73;;
609;SDS011;292;48.800;9.216;2023-05-16T00:15:57;14.87;;;7.03;;
609;SDS011;292;48.800;9.216;2023-05-16T00:18:26;13.70;;;7.93;;
609;SDS011;292;48.800;9.216;2023-05-16T00:20:53;12.00;;;8.00;;
609;SDS011;292;48.800;9.216;2023-05-16T00:23:22;14.13;;;7.60;;
609;SDS011;292;48.800;9.216;2023-05-16T00:25:49;12.60;;;7.17;;
609;SDS011;292;48.800;9.216;2023-05-16T00:28:17;11.50;;;6.07;;
609;SDS011;292;48.800;9.216;2023-05-16T00:30:44;9.43;;;6.23;;
609;SDS011;292;48.800;9.216;2023-05-16T00:33:11;10.90;;;6.23;;
609;SDS011;292;48.800;9.216;2023-05-16T00:35:38;10.10;;;6.57;;
609;SDS011;292;48.800;9.216;2023-05-16T00:38:05;10.30;;;6.73;;
609;SDS011;292;48.800;9.216;2023-05-16T00:40:34;9.40;;;6.60;;
609;SDS011;292;48.800;9.216;2023-05-16T00:43:01;13.10;;;7.73;;
609;SDS011;292;48.800;9.216;2023-05-16T00:45:28;14.10;;;7.53;;
609;SDS011;292;48.800;9.216;2023-05-16T00:47:55;15.13;;;8.70;;
609;SDS011;292;48.800;9.216;2023-05-16T00:50:22;15.47;;;7.00;;
609;SDS011;292;48.800;9.216;2023-05-16T00:52:49;13.43;;;7.90;;
609;SDS011;292;48.800;9.216;2023-05-16T00:55:16;12.67;;;7.60;;
609;SDS011;292;48.800;9.216;2023-05-16T00:57:45;13.10;;;8.30;;
609;SDS011;292;48.800;9.216;2023-05-16T01:00:12;14.03;;;8.00;;
609;SDS011;292;48.800;9.216;2023-05-16T01:02:40;15.10;;;8.60;;
609;SDS011;292;48.800;9.216;2023-05-16T01:05:08;13.37;;;8.23;;
609;SDS011;292;48.800;9.216;2023-05-16T01:07:35;13.97;;;8.33;;
609;SDS011;292;48.800;9.216;2023-05-16T01:10:02;20.83;;;8.70;;
609;SDS011;292;48.800;9.216;2023-05-16T01:12:36;11.20;;;7.37;;
609;SDS011;292;48.800;9.216;2023-05-16T01:15:09;9.80;;;6.27;;
609;SDS011;292;48.800;9.216;2023-05-16T01:17:44;11.80;;;7.70;;
609;SDS011;292;48.800;9.216;2023-05-16T01:20:22;16.63;;;9.63;;
609;SDS011;292;48.800;9.216;2023-05-16T01:23:03;18.27;;;11.07;;
609;SDS011;292;48.800;9.216;2023-05-16T01:25:38;19.30;;;11.80;;
609;SDS011;292;48.800;9.216;2023-05-16T01:28:14;19.73;;;11.77;;
609;SDS011;292;48.800;9.216;2023-05-16T01:30:42;24.67;;;13.73;;
609;SDS011;292;48.800;9.216;2023-05-16T01:33:11;22.40;;;13.50;;
609;SDS011;292;48.800;9.216;2023-05-16T01:35:39;26.37;;;14.30;;
609;SDS011;292;48.800;9.216;2023-05-16T01:38:14;38.97;;;19.60;;
609;SDS011;292;48.800;9.216;2023-05-16T01:40:47;25.57;;;15.03;;
609;SDS011;292;48.800;9.216;2023-05-16T01:43:23;38.83;;;18.10;;
609;SDS011;292;48.800;9.216;2023-05-16T01:45:56;36.50;;;18.83;;
609;SDS011;292;48.800;9.216;2023-05-16T01:48:29;36.00;;;19.73;;
609;SDS011;292;48.800;9.216;2023-05-16T01:51:01;43.23;;;21.73;;
609;SDS011;292;48.800;9.216;2023-05-16T01:53:32;36.13;;;21.13;;
609;SDS011;292;48.800;9.216;2023-05-16T01:56:03;36.17;;;19.87;;
609;SDS011;292;48.800;9.216;2023-05-16T01:58:35;42.80;;;20.53;;
609;SDS011;292;48.800;9.216;2023-05-16T02:01:04;44.37;;;24.13;;
609;SDS011;292;48.800;9.216;2023-05-16T02:03:31;43.97;;;24.00;;
609;SDS011;292;48.800;9.216;2023-05-16T02:05:58;45.47;;;22.67;;
609;SDS011;292;48.800;9.216;2023-05-16T02:08:26;43.90;;;24.17;;
609;SDS011;292;48.800;9.216;2023-05-16T02:10:54;37.53;;;22.40;;
609;SDS011;292;48.800;9.216;2023-05-16T02:13:21;48.07;;;22.50;;
609;SDS011;292;48.800;9.216;2023-05-16T02:15:50;46.67;;;23.30;;
609;SDS011;292;48.800;9.216;2023-05-16T02:18:22;37.97;;;20.70;;
609;SDS011;292;48.800;9.216;2023-05-16T02:20:52;43.70;;;21.37;;
609;SDS011;292;48.800;9.216;2023-05-16T02:23:19;40.30;;;21.50;;
609;SDS011;292;48.800;9.216;2023-05-16T02:25:46;38.63;;;20.33;;
609;SDS011;292;48.800;9.216;2023-05-16T02:28:13;39.23;;;21.57;;
609;SDS011;292;48.800;9.216;2023-05-16T02:30:40;42.87;;;21.83;;
609;SDS011;292;48.800;9.216;2023-05-16T02:33:09;46.17;;;24.40;;
609;SDS011;292;48.800;9.216;2023-05-16T02:35:36;45.83;;;23.30;;
609;SDS011;292;48.800;9.216;2023-05-16T02:38:03;51.97;;;25.77;;
609;SDS011;292;48.800;9.216;2023-05-16T02:40:30;49.23;;;24.30;;
609;SDS011;292;48.800;9.216;2023-05-16T02:42:57;40.17;;;21.53;;
609;SDS011;292;48.800;9.216;2023-05-16T02:45:24;44.80;;;23.63;;
609;SDS011;292;48.800;9.216;2023-05-16T02:47:51;42.00;;;22.07;;
609;SDS011;292;48.800;9.216;2023-05-16T02:50:20;52.57;;;25.30;;
609;SDS011;292;48.800;9.216;2023-05-16T02:52:47;37.47;;;21.10;;
609;SDS011;292;48.800;9.216;2023-05-16T02:55:15;38.80;;;20.80;;
609;SDS011;292;48.800;9.216;2023-05-16T02:57:42;53.67;;;23.00;;
609;SDS011;292;48.800;9.216;2023-05-16T03:00:09;40.83;;;23.07;;
609;SDS011;292;48.800;9.216;2023-05-16T03:02:38;55.70;;;25.43;;
609;SDS011;292;48.800;9.216;2023-05-16T03:05:05;51.50;;;25.40;;
609;SDS011;292;48.800;9.216;2023-05-16T03:07:35;46.90;;;24.90;;
609;SDS011;292;48.800;9.216;2023-05-16T03:10:03;51.40;;;23.43;;
609;SDS011;292;48.800;9.216;2023-05-16T03:12:31;44.40;;;22.93;;
609;SDS011;292;48.800;9.216;2023-05-16T03:14:57;47.30;;;25.23;;
609;SDS011;292;48.800;9.216;2023-05-16T03:17:25;54.23;;;26.50;;
609;SDS011;292;48.800;9.216;2023-05-16T03:19:53;51.67;;;25.70;;
609;SDS011;292;48.800;9.216;2023-05-16T03:22:20;56.00;;;27.10;;
609;SDS011;292;48.800;9.216;2023-05-16T03:24:48;62.97;;;30.17;;
609;SDS011;292;48.800;9.216;2023-05-16T03:27:15;53.80;;;26.43;;
609;SDS011;292;48.800;9.216;2023-05-16T03:29:42;59.20;;;27.40;;
609;SDS011;292;48.800;9.216;2023-05-16T03:32:09;58.33;;;28.93;;
609;SDS011;292;48.800;9.216;2023-05-16T03:34:37;69.03;;;31.70;;
609;SDS011;292;48.800;9.216;2023-05-16T03:37:05;68.57;;;30.77;;
609;SDS011;292;48.800;9.216;2023-05-16T03:39:32;64.13;;;30.77;;
609;SDS011;292;48.800;9.216;2023-05-16T03:42:00;61.80;;;30.67;;
609;SDS011;292;48.800;9.216;2023-05-16T03:44:28;56.47;;;26.33;;
609;SDS011;292;48.800;9.216;2023-05-16T03:46:55;84.10;;;34.40;;
609;SDS011;292;48.800;9.216;2023-05-16T03:49:25;64.77;;;29.50;;
609;SDS011;292;48.800;9.216;2023-05-16T03:51:52;69.90;;;30.23;;
609;SDS011;292;48.800;9.216;2023-05-16T03:54:19;62.67;;;29.90;;
609;SDS011;292;48.800;9.216;2023-05-16T03:56:47;67.47;;;30.07;;
609;SDS011;292;48.800;9.216;2023-05-16T03:59:15;68.43;;;30.67;;
609;SDS011;292;48.800;9.216;2023-05-16T04:01:42;76.23;;;32.60;;
609;SDS011;292;48.800;9.216;2023-05-16T04:04:09;73.43;;;33.17;;
609;SDS011;292;48.800;9.216;2023-05-16T04:06:36;68.80;;;31.77;;
609;SDS011;292;48.800;9.216;2023-05-16T04:09:03;76.13;;;33.73;;
609;SDS011;292;48.800;9.216;2023-05-16T04:11:33;77.37;;;35.13;;
609;SDS011;292;48.800;9.216;2023-05-16T04:14:00;74.13;;;33.03;;
609;SDS011;292;48.800;9.216;2023-05-16T04:16:29;79.53;;;33.27;;
609;SDS011;292;48.800;9.216;2023-05-16T04:18:55;73.70;;;32.10;;
609;SDS011;292;48.800;9.216;2023-05-16T04:21:23;70.43;;;33.63;;
609;SDS011;292;48.800;9.216;2023-05-16T04:23:50;74.53;;;34.47;;
609;SDS011;292;48.800;9.216;2023-05-16T04:26:17;80.10;;;33.30;;
609;SDS011;292;48.800;9.216;2023-05-16T04:28:45;71.57;;;33.03;;
609;SDS011;292;48.800;9.216;2023-05-16T04:31:12;68.70;;;32.40;;
609;SDS011;292;48.800;9.216;2023-05-16T04:33:41;80.27;;;34.17;;
609;SDS011;292;48.800;9.216;2023-05-16T04:36:09;69.87;;;32.10;;
609;SDS011;292;48.800;9.216;2023-05-16T04:38:36;85.70;;;34.63;;
609;SDS011;292;48.800;9.216;2023-05-16T04:41:03;70.07;;;30.97;;
609;SDS011;292;48.800;9.216;2023-05-16T04:43:30;65.20;;;31.10;;
609;SDS011;292;48.800;9.216;2023-05-16T04:45:57;69.87;;;32.63;;
609;SDS011;292;48.800;9.216;2023-05-16T04:48:24;73.60;;;32.00;;
609;SDS011;292;48.800;9.216;2023-05-16T04:50:52;74.17;;;33.67;;
609;SDS011;292;48.800;9.216;2023-05-16T04:53:19;74.70;;;33.63;;
609;SDS011;292;48.800;9.216;2023-05-16T04:55:47;72.47;;;33.50;;
609;SDS011;292;48.800;9.216;2023-05-16T04:58:14;76.67;;;35.80;;
609;SDS011;292;48.800;9.216;2023-05-16T05:00:41;67.53;;;31.97;;
609;SDS011;292;48.800;9.216;2023-05-16T05:03:08;71.97;;;31.63;;
609;SDS011;292;48.800;9.216;2023-05-16T05:05:35;71.23;;;32.33;;
609;SDS011;292;48.800;9.216;2023-05-16T05:08:04;75.50;;;33.47;;
609;SDS011;292;48.800;9.216;2023-05-16T05:10:31;81.50;;;35.00;;
609;SDS011;292;48.800;9.216;2023-05-16T05:12:58;67.33;;;32.10;;
609;SDS011;292;48.800;9.216;2023-05-16T05:15:25;92.20;;;37.37;;
609;SDS011;292;48.800;9.216;2023-05-16T05:17:52;80.97;;;33.90;;
609;SDS011;292;48.800;9.216;2023-05-16T05:20:19;77.03;;;34.43;;
609;SDS011;292;48.800;9.216;2023-05-16T05:22:47;71.97;;;33.17;;
609;SDS011;292;48.800;9.216;2023-05-16T05:25:15;79.90;;;33.63;;
609;SDS011;292;48.800;9.216;2023-05-16T05:27:43;78.83;;;32.93;;
609;SDS011;292;48.800;9.216;2023-05-16T05:30:10;76.23;;;32.70;;
609;SDS011;292;48.800;9.216;2023-05-16T05:32:37;72.27;;;31.50;;
609;SDS011;292;48.800;9.216;2023-05-16T05:35:05;68.83;;;32.67;;
609;SDS011;292;48.800;9.216;2023-05-16T05:37:32;73.70;;;32.90;;
609;SDS011;292;48.800;9.216;2023-05-16T05:39:59;82.80;;;34.40;;
609;SDS011;292;48.800;9.216;2023-05-16T05:42:28;83.33;;;33.93;;
609;SDS011;292;48.800;9.216;2023-05-16T05:44:55;64.07;;;30.93;;
609;SDS011;292;48.800;9.216;2023-05-16T05:47:23;69.00;;;31.77;;
609;SDS011;292;48.800;9.216;2023-05-16T05:49:50;73.77;;;33.77;;
609;SDS011;292;48.800;9.216;2023-05-16T05:52:17;71.47;;;31.93;;
609;SDS011;292;48.800;9.216;2023-05-16T05:54:44;79.90;;;34.03;;
609;SDS011;292;48.800;9.216;2023-05-16T05:57:12;76.97;;;34.27;;
609;SDS011;292;48.800;9.216;2023-05-16T05:59:41;72.20;;;33.47;;
609;SDS011;292;48.800;9.216;2023-05-16T06:02:08;76.63;;;32.57;;
609;SDS011;292;48.800;9.216;2023-05-16T06:04:35;70.57;;;32.30;;
609;SDS011;292;48.800;9.216;2023-05-16T06:07:02;73.50;;;32.20;;
609;SDS011;292;48.800;9.216;2023-05-16T06:09:32;78.53;;;32.60;;
609;SDS011;292;48.800;9.216;2023-05-16T06:11:59;70.57;;;32.30;;
609;SDS011;292;48.800;9.216;2023-05-16T06:14:28;73.70;;;32.67;;
609;SDS011;292;48.800;9.216;2023-05-16T06:16:57;61.90;;;29.50;;
609;SDS011;292;48.800;9.216;2023-05-16T06:19:24;63.97;;;31.00;;
609;SDS011;292;48.800;9.216;2023-05-16T06:21:51;70.03;;;29.93;;
609;SDS011;292;48.800;9.216;2023-05-16T06:24:18;68.43;;;29.67;;
609;SDS011;292;48.800;9.216;2023-05-16T06:26:45;59.87;;;27.50;;
609;SDS011;292;48.800;9.216;2023-05-16T06:29:14;69.00;;;30.90;;
609;SDS011;292;48.800;9.216;2023-05-16T06:31:41;62.73;;;29.03;;
609;SDS011;292;48.800;9.216;2023-05-16T06:34:09;58.20;;;27.20;;
609;SDS011;292;48.800;9.216;2023-05-16T06:36:36;61.93;;;28.13;;
609;SDS011;292;48.800;9.216;2023-05-16T06:39:03;57.10;;;25.50;;
609;SDS011;292;48.800;9.216;2023-05-16T06:41:31;59.33;;;27.87;;
609;SDS011;292;48.800;9.216;2023-05-16T06:43:58;57.77;;;26.90;;
609;SDS011;292;48.800;9.216;2023-05-16T06:46:25;57.90;;;27.10;;
609;SDS011;292;48.800;9.216;2023-05-16T06:48:52;53.70;;;25.93;;
609;SDS011;292;48.800;9.216;2023-05-16T06:51:21;48.53;;;24.30;;
609;SDS011;292;48.800;9.216;2023-05-16T06:53:48;61.80;;;27.67;;
609;SDS011;292;48.800;9.216;2023-05-16T06:56:15;55.37;;;26.27;;
609;SDS011;292;48.800;9.216;2023-05-16T06:58:43;55.27;;;26.30;;
609;SDS011;292;48.800;9.216;2023-05-16T07:01:10;49.50;;;25.07;;
609;SDS011;292;48.800;9.216;2023-05-16T07:03:37;55.30;;;26.03;;
609;SDS011;292;48.800;9.216;2023-05-16T07:06:05;58.33;;;25.80;;
609;SDS011;292;48.800;9.216;2023-05-16T07:08:34;51.97;;;24.87;;
609;SDS011;292;48.800;9.216;2023-05-16T07:11:02;54.73;;;25.40;;
609;SDS011;292;48.800;9.216;2023-05-16T07:13:29;48.33;;;22.53;;
609;SDS011;292;48.800;9.216;2023-05-16T07:15:56;44.00;;;22.47;;
609;SDS011;292;48.800;9.216;2023-05-16T07:18:23;49.50;;;23.30;;
609;SDS011;292;48.800;9.216;2023-05-16T07:20:50;51.17;;;22.67;;
609;SDS011;292;48.800;9.216;2023-05-16T07:23:17;47.00;;;21.23;;
609;SDS011;292;48.800;9.216;2023-05-16T07:25:46;54.27;;;23.13;;
609;SDS011;292;48.800;9.216;2023-05-16T07:28:13;58.63;;;23.53;;
609;SDS011;292;48.800;9.216;2023-05-16T07:30:40;40.70;;;20.30;;
609;SDS011;292;48.800;9.216;2023-05-16T07:33:07;33.90;;;18.13;;
609;SDS011;292;48.800;9.216;2023-05-16T07:35:35;37.37;;;17.30;;
609;SDS011;292;48.800;9.216;2023-05-16T07:38:03;27.23;;;16.53;;
609;SDS011;292;48.800;9.216;2023-05-16T07:40:30;27.97;;;14.90;;
609;SDS011;292;48.800;9.216;2023-05-16T07:42:58;34.33;;;15.87;;
609;SDS011;292;48.800;9.216;2023-05-16T07:45:26;29.87;;;13.70;;
609;SDS011;292;48.800;9.216;2023-05-16T07:47:54;27.87;;;13.97;;
609;SDS011;292;48.800;9.216;2023-05-16T07:50:21;27.03;;;14.30;;
609;SDS011;292;48.800;9.216;2023-05-16T07:52:48;23.50;;;13.40;;
609;SDS011;292;48.800;9.216;2023-05-16T07:55:15;25.90;;;12.70;;
609;SDS011;292;48.800;9.216;2023-05-16T07:57:42;31.27;;;12.00;;
609;SDS011;292;48.800;9.216;2023-05-16T08:00:12;22.73;;;11.67;;
609;SDS011;292;48.800;9.216;2023-05-16T08:02:39;21.37;;;12.47;;
609;SDS011;292;48.800;9.216;2023-05-16T08:05:07;19.93;;;11.63;;
609;SDS011;292;48.800;9.216;2023-05-16T08:07:34;21.23;;;11.70;;
609;SDS011;292;48.800;9.216;2023-05-16T08:10:01;23.13;;;11.50;;
609;SDS011;292;48.800;9.216;2023-05-16T08:12:29;18.13;;;11.13;;
609;SDS011;292;48.800;9.216;2023-05-16T08:14:56;20.30;;;11.33;;
609;SDS011;292;48.800;9.216;2023-05-16T08:17:24;16.87;;;10.87;;
609;SDS011;292;48.800;9.216;2023-05-16T08:19:51;22.53;;;11.40;;
609;SDS011;292;48.800;9.216;2023-05-16T08:22:19;19.60;;;11.37;;
609;SDS011;292;48.800;9.216;2023-05-16T08:24:46;18.93;;;11.13;;
609;SDS011;292;48.800;9.216;2023-05-16T08:27:13;18.63;;;10.07;;
609;SDS011;292;48.800;9.216;2023-05-16T08:29:40;17.03;;;10.90;;
609;SDS011;292;48.800;9.216;2023-05-16T08:32:07;25.20;;;11.33;;
609;SDS011;292;48.800;9.216;2023-05-16T08:34:36;18.00;;;10.90;;
609;SDS011;292;48.800;9.216;2023-05-16T08:37:03;20.43;;;11.30;;
609;SDS011;292;48.800;9.216;2023-05-16T08:39:30;21.47;;;12.00;;
609;SDS011;292;48.800;9.216;2023-05-16T08:41:57;24.37;;;12.77;;
609;SDS011;292;48.800;9.216;2023-05-16T08:44:26;27.97;;;13.17;;
609;SDS011;292;48.800;9.216;2023-05-16T08:46:54;25.43;;;14.30;;
609;SDS011;292;48.800;9.216;2023-05-16T08:49:22;25.73;;;14.97;;
609;SDS011;292;48.800;9.216;2023-05-16T08:51:55;26.60;;;13.83;;
609;SDS011;292;48.800;9.216;2023-05-16T08:54:23;28.33;;;14.03;;
609;SDS011;292;48.800;9.216;2023-05-16T08:56:51;27.37;;;14.40;;
609;SDS011;292;48.800;9.216;2023-05-16T08:59:18;32.93;;;14.10;;
609;SDS011;292;48.800;9.216;2023-05-16T09:01:46;27.90;;;14.47;;
609;SDS011;292;48.800;9.216;2023-05-16T09:04:14;28.17;;;15.23;;
609;SDS011;292;48.800;9.216;2023-05-16T09:06:41;27.20;;;14.20;;
609;SDS011;292;48.800;9.216;2023-05-16T09:09:10;30.70;;;14.63;;
609;SDS011;292;48.800;9.216;2023-05-16T09:11:37;32.87;;;15.87;;
609;SDS011;292;48.800;9.216;2023-05-16T09:14:04;32.00;;;17.00;;
609;SDS011;292;48.800;9.216;2023-05-16T09:16:31;37.40;;;17.27;;
609;SDS011;292;48.800;9.216;2023-05-16T09:18:59;32.73;;;16.80;;
609;SDS011;292;48.800;9.216;2023-05-16T09:21:27;31.43;;;16.13;;
609;SDS011;292;48.800;9.216;2023-05-16T09:24:01;29.10;;;15.33;;
609;SDS011;292;48.800;9.216;2023-05-16T09:26:31;32.77;;;17.03;;
609;SDS011;292;48.800;9.216;2023-05-16T09:29:00;35.73;;;16.40;;
609;SDS011;292;48.800;9.216;2023-05-16T09:31:27;35.40;;;18.30;;
609;SDS011;292;48.800;9.216;2023-05-16T09:34:02;33.83;;;17.90;;
609;SDS011;292;48.800;9.216;2023-05-16T09:36:30;33.03;;;16.27;;
609;SDS011;292;48.800;9.216;2023-05-16T09:38:57;35.07;;;18.77;;
609;SDS011;292;48.800;9.216;2023-05-16T09:41:25;34.47;;;18.23;;
609;SDS011;292;48.800;9.216;2023-05-16T09:43:54;33.53;;;17.40;;
609;SDS011;292;48.800;9.216;2023-05-16T09:46:23;38.80;;;19.40;;
609;SDS011;292;48.800;9.216;2023-05-16T09:48:51;34.00;;;18.70;;
609;SDS011;292;48.800;9.216;2023-05-16T09:51:20;36.27;;;18.47;;
609;SDS011;292;48.800;9.216;2023-05-16T09:53:47;34.60;;;18.70;;
609;SDS011;292;48.800;9.216;2023-05-16T09:56:18;33.93;;;18.97;;
609;SDS011;292;48.800;9.216;2023-05-16T09:58:45;31.33;;;16.60;;
609;SDS011;292;48.800;9.216;2023-05-16T10:01:14;34.03;;;16.80;;
609;SDS011;292;48.800;9.216;2023-05-16T10:03:41;36.67;;;18.43;;
609;SDS011;292;48.800;9.216;2023-05-16T10:06:09;42.10;;;20.13;;
609;SDS011;292;48.800;9.216;2023-05-16T10:08:37;33.90;;;17.53;;
609;SDS011;292;48.800;9.216;2023-05-16T10:11:08;36.80;;;17.50;;
609;SDS011;292;48.800;9.216;2023-05-16T10:13:36;39.30;;;19.13;;
609;SDS011;292;48.800;9.216;2023-05-16T10:16:05;34.60;;;18.47;;
609;SDS011;292;48.800;9.216;2023-05-16T10:18:34;44.77;;;20.50;;
609;SDS011;292;48.800;9.216;2023-05-16T10:21:03;39.43;;;19.40;;
609;SDS011;292;48.800;9.216;2023-05-16T10:23:32;36.03;;;18.00;;
609;SDS011;292;48.800;9.216;2023-05-16T10:26:01;37.60;;;18.00;;
609;SDS011;292;48.800;9.216;2023-05-16T10:28:30;38.33;;;18.87;;
609;SDS011;292;48.800;9.216;2023-05-16T10:30:58;33.83;;;18.30;;
609;SDS011;292;48.800;9.216;2023-05-16T10:33:27;34.93;;;17.17;;
609;SDS011;292;48.800;9.216;2023-05-16T10:35:55;35.73;;;18.30;;
609;SDS011;292;48.800;9.216;2023-05-16T10:38:22;39.43;;;18.50;;
609;SDS011;292;48.800;9.216;2023-05-16T10:40:50;33.90;;;17.20;;
609;SDS011;292;48.800;9.216;2023-05-16T10:43:24;33.77;;;17.13;;
609;SDS011;292;48.800;9.216;2023-05-16T10:45:53;31.27;;;16.97;;
609;SDS011;292;48.800;9.216;2023-05-16T10:48:27;38.73;;;17.87;;
609;SDS011;292;48.800;9.216;2023-05-16T10:50:58;30.50;;;16.90;;
609;SDS011;292;48.800;9.216;2023-05-16T10:53:31;34.50;;;16.77;;
609;SDS011;292;48.800;9.216;2023-05-16T10:56:08;31.93;;;15.77;;
609;SDS011;292;48.800;9.216;2023-05-16T10:58:43;32.87;;;17.33;;
609;SDS011;292;48.800;9.216;2023-05-16T11:01:22;35.27;;;17.50;;
609;SDS011;292;48.800;9.216;2023-05-16T11:04:03;31.20;;;16.67;;
609;SDS011;292;48.800;9.216;2023-05-16T11:06:34;31.67;;;16.30;;
609;SDS011;292;48.800;9.216;2023-05-16T11:09:16;34.90;;;17.80;;
609;SDS011;292;48.800;9.216;2023-05-16T11:11:53;31.70;;;16.07;;
609;SDS011;292;48.800;9.216;2023-05-16T11:14:25;25.93;;;13.70;;
609;SDS011;292;48.800;9.216;2023-05-16T11:16:59;28.87;;;13.87;;
609;SDS011;292;48.800;9.216;2023-05-16T11:19:29;29.47;;;14.60;;
609;SDS011;292;48.800;9.216;2023-05-16T11:22:20;29.63;;;15.30;;
609;SDS011;292;48.800;9.216;2023-05-16T11:24:50;31.37;;;13.97;;
609;SDS011;292;48.800;9.216;2023-05-16T11:27:22;21.90;;;11.53;;
609;SDS011;292;48.800;9.216;2023-05-16T11:29:53;20.90;;;10.90;;
609;SDS011;292;48.800;9.216;2023-05-16T11:32:21;26.00;;;11.10;;
609;SDS011;292;48.800;9.216;2023-05-16T11:34:49;19.57;;;10.00;;
609;SDS011;292;48.800;9.216;2023-05-16T11:37:20;20.80;;;9.60;;
609;SDS011;292;48.800;9.216;2023-05-16T11:39:47;18.97;;;10.70;;
609;SDS011;292;48.800;9.216;2023-05-16T11:42:14;22.50;;;9.83;;
609;SDS011;292;48.800;9.216;2023-05-16T11:44:42;18.60;;;10.10;;
609;SDS011;292;48.800;9.216;2023-05-16T11:47:09;17.77;;;9.43;;
609;SDS011;292;48.800;9.216;2023-05-16T11:49:36;20.07;;;10.50;;
609;SDS011;292;48.800;9.216;2023-05-16T11:52:06;19.70;;;10.37;;
609;SDS011;292;48.800;9.216;2023-05-16T11:54:36;20.03;;;10.00;;
609;SDS011;292;48.800;9.216;2023-05-16T11:57:03;23.57;;;10.30;;
609;SDS011;292;48.800;9.216;2023-05-16T11:59:31;16.37;;;9.37;;
609;SDS011;292;48.800;9.216;2023-05-16T12:01:58;21.90;;;9.03;;
609;SDS011;292;48.800;9.216;2023-05-16T12:04:30;18.10;;;9.10;;
609;SDS011;292;48.800;9.216;2023-05-16T12:06:58;16.70;;;8.47;;
609;SDS011;292;48.800;9.216;2023-05-16T12:09:26;15.73;;;8.63;;
609;SDS011;292;48.800;9.216;2023-05-16T12:11:55;16.93;;;8.60;;
609;SDS011;292;48.800;9.216;2023-05-16T12:14:22;18.37;;;8.30;;
609;SDS011;292;48.800;9.216;2023-05-16T12:16:50;13.77;;;8.07;;
609;SDS011;292;48.800;9.216;2023-05-16T12:19:18;15.53;;;8.10;;
609;SDS011;292;48.800;9.216;2023-05-16T12:21:46;15.20;;;8.20;;
609;SDS011;292;48.800;9.216;2023-05-16T12:24:13;13.87;;;7.30;;
609;SDS011;292;48.800;9.216;2023-05-16T12:26:41;13.07;;;7.07;;
609;SDS011;292;48.800;9.216;2023-05-16T12:29:10;13.77;;;7.47;;
609;SDS011;292;48.800;9.216;2023-05-16T12:31:39;14.80;;;7.20;;
609;SDS011;292;48.800;9.216;2023-05-16T12:34:16;12.70;;;6.73;;
609;SDS011;292;48.800;9.216;2023-05-16T12:36:49;9.97;;;6.60;;
609;SDS011;292;48.800;9.216;2023-05-16T12:39:18;10.83;;;5.70;;
609;SDS011;292;48.800;9.216;2023-05-16T12:41:47;7.80;;;5.13;;
609;SDS011;292;48.800;9.216;2023-05-16T12:44:16;9.17;;;5.20;;
609;SDS011;292;48.800;9.216;2023-05-16T12:46:44;11.33;;;5.93;;
609;SDS011;292;48.800;9.216;2023-05-16T12:49:12;9.90;;;3.53;;
609;SDS011;292;48.800;9.216;2023-05-16T12:51:46;7.47;;;4.00;;
609;SDS011;292;48.800;9.216;2023-05-16T12:54:14;7.10;;;4.80;;
609;SDS011;292;48.800;9.216;2023-05-16T12:56:41;8.93;;;5.20;;
609;SDS011;292;48.800;9.216;2023-05-16T12:59:08;7.47;;;4.80;;
609;SDS011;292;48.800;9.216;2023-05-16T13:01:38;9.13;;;4.53;;
609;SDS011;292;48.800;9.216;2023-05-16T13:04:06;4.30;;;3.27;;
609;SDS011;292;48.800;9.216;2023-05-16T13:06:38;6.83;;;3.80;;
609;SDS011;292;48.800;9.216;2023-05-16T13:09:08;5.53;;;3.60;;
609;SDS011;292;48.800;9.216;2023-05-16T13:11:36;5.47;;;3.43;;
609;SDS011;292;48.800;9.216;2023-05-16T13:14:03;8.90;;;3.40;;
609;SDS011;292;48.800;9.216;2023-05-16T13:16:31;5.20;;;3.73;;
609;SDS011;292;48.800;9.216;2023-05-16T13:18:59;6.60;;;3.30;;
609;SDS011;292;48.800;9.216;2023-05-16T13:21:27;8.60;;;3.47;;
609;SDS011;292;48.800;9.216;2023-05-16T13:23:56;5.20;;;3.73;;
609;SDS011;292;48.800;9.216;2023-05-16T13:26:22;7.60;;;2.70;;
609;SDS011;292;48.800;9.216;2023-05-16T13:28:50;8.20;;;3.43;;
609;SDS011;292;48.800;9.216;2023-05-16T13:31:19;8.63;;;2.60;;
609;SDS011;292;48.800;9.216;2023-05-16T13:33:46;5.00;;;2.70;;
609;SDS011;292;48.800;9.216;2023-05-16T13:36:15;3.50;;;3.00;;
609;SDS011;292;48.800;9.216;2023-05-16T13:38:42;4.67;;;2.30;;
609;SDS011;292;48.800;9.216;2023-05-16T13:41:09;5.77;;;2.73;;
609;SDS011;292;48.800;9.216;2023-05-16T13:43:37;5.90;;;3.00;;
609;SDS011;292;48.800;9.216;2023-05-16T13:46:04;3.80;;;2.73;;
609;SDS011;292;48.800;9.216;2023-05-16T13:48:31;6.03;;;2.80;;
609;SDS011;292;48.800;9.216;2023-05-16T13:50:58;4.87;;;2.90;;
609;SDS011;292;48.800;9.216;2023-05-16T13:53:26;5.47;;;3.20;;
609;SDS011;292;48.800;9.216;2023-05-16T13:55:53;5.40;;;2.53;;
609;SDS011;292;48.800;9.216;2023-05-16T13:58:20;4.50;;;2.93;;
609;SDS011;292;48.800;9.216;2023-05-16T14:00:47;7.70;;;3.20;;
609;SDS011;292;48.800;9.216;2023-05-16T14:03:15;4.83;;;2.70;;
609;SDS011;292;48.800;9.216;2023-05-16T14:05:42;6.93;;;2.87;;
609;SDS011;292;48.800;9.216;2023-05-16T14:08:09;5.63;;;3.20;;
609;SDS011;292;48.800;9.216;2023-05-16T14:10:37;4.87;;;2.60;;
609;SDS011;292;48.800;9.216;2023-05-16T14:13:04;6.00;;;2.23;;
609;SDS011;292;48.800;9.216;2023-05-16T14:15:32;4.70;;;2.60;;
609;SDS011;292;48.800;9.216;2023-05-16T14:17:59;14.60;;;3.10;;
609;SDS011;292;48.800;9.216;2023-05-16T14:20:27;5.53;;;3.20;;
609;SDS011;292;48.800;9.216;2023-05-16T14:22:55;5.47;;;3.00;;
609;SDS011;292;48.800;9.216;2023-05-16T14:25:22;13.43;;;3.47;;
609;SDS011;292;48.800;9.216;2023-05-16T14:27:51;12.30;;;3.03;;
609;SDS011;292;48.800;9.216;2023-05-16T14:30:18;6.23;;;3.13;;
609;SDS011;292;48.800;9.216;2023-05-16T14:32:45;9.00;;;2.70;;
609;SDS011;292;48.800;9.216;2023-05-16T14:35:12;5.57;;;2.60;;
609;SDS011;292;48.800;9.216;2023-05-16T14:37:40;3.90;;;2.80;;
609;SDS011;292;48.800;9.216;2023-05-16T14:40:07;3.60;;;2.83;;
609;SDS011;292;48.800;9.216;2023-05-16T14:42:34;5.93;;;3.03;;
609;SDS011;292;48.800;9.216;2023-05-16T14:45:03;3.80;;;2.43;;
609;SDS011;292;48.800;9.216;2023-05-16T14:47:30;4.27;;;2.50;;
609;SDS011;292;48.800;9.216;2023-05-16T14:49:58;7.47;;;2.90;;
609;SDS011;292;48.800;9.216;2023-05-16T14:52:25;3.77;;;2.30;;
609;SDS011;292;48.800;9.216;2023-05-16T14:54:52;5.93;;;2.40;;
609;SDS011;292;48.800;9.216;2023-05-16T14:57:20;2.80;;;1.87;;
609;SDS011;292;48.800;9.216;2023-05-16T14:59:47;4.73;;;2.63;;
609;SDS011;292;48.800;9.216;2023-05-16T15:02:15;5.23;;;1.93;;
609;SDS011;292;48.800;9.216;2023-05-16T15:04:44;5.63;;;1.67;;
609;SDS011;292;48.800;9.216;2023-05-16T15:07:11;4.23;;;1.70;;
609;SDS011;292;48.800;9.216;2023-05-16T15:09:38;1.43;;;1.37;;
609;SDS011;292;48.800;9.216;2023-05-16T15:12:05;7.37;;;1.73;;
609;SDS011;292;48.800;9.216;2023-05-16T15:14:33;7.17;;;2.50;;
609;SDS011;292;48.800;9.216;2023-05-16T15:16:59;3.97;;;1.90;;
609;SDS011;292;48.800;9.216;2023-05-16T15:19:29;4.80;;;1.87;;
609;SDS011;292;48.800;9.216;2023-05-16T15:21:56;3.27;;;1.67;;
609;SDS011;292;48.800;9.216;2023-05-16T15:24:23;5.83;;;1.80;;
609;SDS011;292;48.800;9.216;2023-05-16T15:26:51;7.20;;;1.77;;
609;SDS011;292;48.800;9.216;2023-05-16T15:29:19;6.63;;;1.40;;